Briscoe, Texas
Current Conditions -  °F | °C
As of 4:55 PM on Thursday 20 Nov 2014 (Local Time) from KHHF Reporting Station
Clear Clear  
Wind Chill: 13°   Ceiling: Unl
Heat Index: 13°   Visibility: 10mi
Dew Point:   Wind: 9mph
Humidity: 44%   Direction: 120°ESE
Pressure: 29.98"   Gusts: NA
Location:  35.58°N, 100.29°W
Report Text: KHHF 202255Z AUTO 12008KT 10SM CLR 13/01 A2998 RMK AO2 T01300009
Loading
Personal Weather Stations






























Interactive Weather Map New forecast layout! Learn more

10-Day Weather Forecast

Advertisements
Track Severe Weather on mobile